Limassol, Cyprus
Current Conditions -  °F | °C
As of 11:50 AM on Wednesday 22 Oct 2014 (Local Time) from LCRA Reporting Station
Broken Clouds Broken Clouds  
Wind Chill: 73°   Ceiling: 15000
Heat Index: 73°   Visibility: 6mi
Dew Point: 57°   Wind: 9mph
Humidity: 57%   Direction: 100°E
Pressure: 30.03"   Gusts: NA
Location:  34.76°N, 32.95°E
Report Text: LCRA 220850Z 10008KT 9999 FEW040 SCT050 BKN150 23/14 Q1017 NOSIG
Loading
Personal Weather Stations






























Interactive Weather Map
Tropical Storm Tracking
New forecast layout! Learn more

10-Day Weather Forecast

Advertisements
Track Severe Weather on mobile